createdAt,value
2018-04-20T00:00:40.403Z,6.17
2018-04-20T00:03:07.904Z,5.13
2018-04-20T00:05:36.955Z,5.13
2018-04-20T00:08:04.469Z,6.47
2018-04-20T00:10:33.789Z,6.43
2018-04-20T00:13:02.074Z,4.20
2018-04-20T00:15:29.597Z,4.00
2018-04-20T00:17:57.120Z,5.97
2018-04-20T00:20:24.627Z,4.77
2018-04-20T00:22:52.928Z,6.90
2018-04-20T00:25:20.422Z,5.90
2018-04-20T00:27:47.912Z,4.40
2018-04-20T00:30:16.203Z,6.23
2018-04-20T00:32:43.699Z,4.40
2018-04-20T00:35:11.215Z,5.47
2018-04-20T00:37:38.717Z,4.73
2018-04-20T00:40:06.239Z,8.67
2018-04-20T00:42:33.739Z,5.20
2018-04-20T00:45:02.054Z,4.60
2018-04-20T00:47:29.579Z,5.20
2018-04-20T00:49:57.079Z,6.00
2018-04-20T00:52:24.600Z,5.47
2018-04-20T00:54:52.139Z,5.87
2018-04-20T00:57:19.685Z,5.17
2018-04-20T00:59:47.192Z,6.27
2018-04-20T01:02:15.473Z,6.17
2018-04-20T01:04:43.757Z,7.67
2018-04-20T01:07:11.280Z,5.67
2018-04-20T01:09:39.554Z,6.40
2018-04-20T01:12:07.055Z,6.50
2018-04-20T01:14:34.611Z,5.60
2018-04-20T01:17:02.125Z,5.53
2018-04-20T01:19:29.651Z,5.50
2018-04-20T01:21:57.161Z,6.50
2018-04-20T01:24:27.397Z,5.30
2018-04-20T01:26:54.905Z,5.47
2018-04-20T01:29:22.412Z,6.03
2018-04-20T01:31:49.952Z,5.23
2018-04-20T01:34:18.236Z,5.43
2018-04-20T01:36:46.528Z,6.40
2018-04-20T01:39:14.044Z,5.67
2018-04-20T01:41:41.575Z,7.87
2018-04-20T01:44:09.067Z,7.33
2018-04-20T01:46:37.355Z,6.03
2018-04-20T01:49:05.639Z,6.37
2018-04-20T01:51:33.142Z,5.67
2018-04-20T01:54:00.681Z,7.30
2018-04-20T01:56:29.124Z,6.53
2018-04-20T01:58:57.416Z,6.83
2018-04-20T02:01:24.932Z,7.03
2018-04-20T02:03:53.197Z,6.67
2018-04-20T02:06:20.719Z,6.37
2018-04-20T02:08:48.225Z,6.50
2018-04-20T02:11:15.778Z,6.37
2018-04-20T02:13:44.246Z,5.97
2018-04-20T02:16:11.779Z,5.50
2018-04-20T02:18:39.276Z,6.00
2018-04-20T02:21:06.776Z,6.17
2018-04-20T02:23:36.276Z,6.13
2018-04-20T02:26:03.783Z,5.80
2018-04-20T02:28:32.807Z,6.87
2018-04-20T02:31:01.123Z,6.17
2018-04-20T02:33:28.894Z,6.60
2018-04-20T02:35:57.343Z,7.50
2018-04-20T02:38:24.871Z,8.00
2018-04-20T02:40:52.369Z,6.30
2018-04-20T02:43:19.903Z,6.43
2018-04-20T02:45:48.168Z,6.17
2018-04-20T02:48:16.456Z,9.40
2018-04-20T02:50:44.742Z,5.60
2018-04-20T02:53:12.250Z,7.03
2018-04-20T02:55:42.275Z,5.80
2018-04-20T02:58:09.772Z,6.87
2018-04-20T03:00:37.287Z,6.57
2018-04-20T03:03:05.565Z,6.57
2018-04-20T03:05:35.833Z,6.93
2018-04-20T03:08:03.348Z,5.70
2018-04-20T03:10:30.884Z,6.77
2018-04-20T03:12:59.156Z,7.10
2018-04-20T03:15:26.682Z,6.27
2018-04-20T03:17:54.193Z,6.80
2018-04-20T03:20:21.687Z,6.10
2018-04-20T03:22:51.201Z,6.77
2018-04-20T03:25:18.701Z,8.40
2018-04-20T03:27:47.745Z,5.90
2018-04-20T03:30:16.227Z,9.60
2018-04-20T03:32:43.749Z,9.13
2018-04-20T03:35:12.025Z,8.20
2018-04-20T03:37:40.312Z,5.80
2018-04-20T03:40:08.577Z,8.17
2018-04-20T03:42:36.862Z,6.20
2018-04-20T03:45:05.134Z,6.80
2018-04-20T03:47:33.401Z,6.03
2018-04-20T03:50:01.700Z,7.00
2018-04-20T03:52:29.216Z,6.30
2018-04-20T03:54:57.503Z,6.73
2018-04-20T03:57:25.002Z,7.70
2018-04-20T03:59:54.454Z,9.40
2018-04-20T04:02:21.955Z,5.80
2018-04-20T04:04:49.479Z,6.00
2018-04-20T04:07:17.753Z,8.50
2018-04-20T04:09:45.301Z,7.00
2018-04-20T04:12:13.776Z,8.23
2018-04-20T04:14:41.284Z,6.63
2018-04-20T04:17:20.633Z,6.70
2018-04-20T04:23:06.751Z,6.33
2018-04-20T04:25:46.252Z,7.00
2018-04-20T04:28:28.663Z,6.63
2018-04-20T04:30:57.156Z,5.73
2018-04-20T04:33:24.672Z,5.70
2018-04-20T04:35:52.947Z,6.80
2018-04-20T04:38:21.251Z,5.20
2018-04-20T04:40:48.762Z,5.50
2018-04-20T04:43:16.280Z,7.07
2018-04-20T04:45:44.777Z,5.70
2018-04-20T04:48:12.296Z,7.67
2018-04-20T04:50:40.562Z,7.73
2018-04-20T04:53:08.835Z,6.27
2018-04-20T04:55:37.136Z,7.10
2018-04-20T04:58:04.645Z,10.10
2018-04-20T05:00:33.673Z,7.77
2018-04-20T05:03:01.171Z,7.37
2018-04-20T05:05:28.716Z,5.90
2018-04-20T05:07:56.217Z,6.83
2018-04-20T05:10:24.508Z,7.00
2018-04-20T05:12:52.777Z,8.60
2018-04-20T05:15:21.076Z,6.60
2018-04-20T05:17:49.539Z,6.93
2018-04-20T05:20:17.808Z,6.13
2018-04-20T05:22:46.093Z,5.90
2018-04-20T05:25:14.361Z,5.63
2018-04-20T05:27:42.648Z,8.83
2018-04-20T05:30:10.138Z,6.93
2018-04-20T05:32:37.663Z,6.93
2018-04-20T05:35:05.170Z,6.63
2018-04-20T05:37:32.706Z,5.70
2018-04-20T05:40:00.211Z,6.60
2018-04-20T05:42:27.724Z,5.70
2018-04-20T05:44:55.248Z,7.70
2018-04-20T05:47:23.519Z,7.03
2018-04-20T05:49:52.233Z,13.00
2018-04-20T05:52:21.870Z,6.60
2018-04-20T05:54:50.110Z,6.37
2018-04-20T05:57:17.975Z,9.10
2018-04-20T05:59:45.691Z,6.37
2018-04-20T06:02:14.731Z,4.13
2018-04-20T06:04:42.597Z,6.00
2018-04-20T06:07:10.460Z,9.37
2018-04-20T06:09:38.430Z,5.47
2018-04-20T06:12:07.318Z,6.20
2018-04-20T06:14:35.183Z,5.23
2018-04-20T06:17:03.052Z,6.53
2018-04-20T06:19:31.016Z,9.20
2018-04-20T06:21:59.736Z,4.93
2018-04-20T06:24:27.669Z,4.20
2018-04-20T06:26:55.588Z,5.40
2018-04-20T06:29:23.293Z,4.63
2018-04-20T06:31:51.045Z,4.90
2018-04-20T06:34:18.920Z,57.70
2018-04-20T06:36:46.613Z,125.70
2018-04-20T06:39:14.452Z,100.77
2018-04-20T06:41:42.328Z,98.97
2018-04-20T06:44:12.741Z,108.57
2018-04-20T06:46:40.612Z,147.27
2018-04-20T06:49:08.472Z,114.27
2018-04-20T06:51:37.256Z,103.70
2018-04-20T06:54:04.796Z,104.43
2018-04-20T06:56:32.304Z,84.80
2018-04-20T06:58:59.844Z,96.07
2018-04-20T07:01:27.387Z,79.03
2018-04-20T07:03:56.884Z,80.90
2018-04-20T07:06:24.392Z,55.07
2018-04-20T07:08:51.927Z,61.63
2018-04-20T07:11:19.432Z,58.17
2018-04-20T07:13:47.725Z,57.13
2018-04-20T07:16:15.240Z,67.70
2018-04-20T07:18:43.570Z,47.57
2018-04-20T07:21:11.083Z,59.40
2018-04-20T07:23:38.620Z,56.30
2018-04-20T07:26:06.160Z,62.63
2018-04-20T07:28:33.671Z,54.63
2018-04-20T07:31:01.963Z,44.47
2018-04-20T07:33:29.471Z,45.37
2018-04-20T07:35:56.997Z,39.83
2018-04-20T07:38:25.467Z,40.77
2018-04-20T07:40:53.000Z,41.63
2018-04-20T07:43:21.282Z,54.80
2018-04-20T07:45:49.568Z,37.03
2018-04-20T07:48:17.111Z,36.80
2018-04-20T07:50:45.375Z,32.00
2018-04-20T07:53:13.650Z,27.77
2018-04-20T07:55:41.943Z,43.90
2018-04-20T07:58:09.467Z,46.67
2018-04-20T08:00:36.991Z,28.33
2018-04-20T08:03:04.513Z,38.90
2018-04-20T08:05:32.040Z,26.53
2018-04-20T08:08:01.053Z,28.83
2018-04-20T08:10:29.351Z,22.93
2018-04-20T08:12:56.888Z,31.70
2018-04-20T08:15:25.182Z,25.30
2018-04-20T08:17:52.687Z,23.57
2018-04-20T08:20:20.216Z,22.17
2018-04-20T08:22:47.753Z,27.77
2018-04-20T08:25:17.260Z,21.03
2018-04-20T08:27:44.828Z,20.90
2018-04-20T08:30:13.067Z,26.50
2018-04-20T08:32:41.345Z,32.37
2018-04-20T08:35:09.624Z,19.20
2018-04-20T08:37:39.887Z,21.03
2018-04-20T08:40:07.431Z,23.17
2018-04-20T08:42:34.961Z,17.50
2018-04-20T08:45:03.275Z,17.33
2018-04-20T08:47:30.787Z,14.67
2018-04-20T08:49:59.105Z,19.30
2018-04-20T08:52:26.615Z,21.67
2018-04-20T08:54:55.649Z,18.43
2018-04-20T08:57:23.184Z,17.30
2018-04-20T08:59:50.712Z,21.77
2018-04-20T09:02:18.223Z,17.00
2018-04-20T09:04:45.719Z,22.17
2018-04-20T09:07:14.011Z,21.33
2018-04-20T09:09:41.543Z,16.53
2018-04-20T09:12:09.052Z,20.07
2018-04-20T09:14:36.562Z,18.33
2018-04-20T09:17:04.095Z,15.97
2018-04-20T09:19:31.596Z,18.33
2018-04-20T09:21:59.895Z,15.17
2018-04-20T09:24:27.418Z,20.00
2018-04-20T09:26:55.907Z,13.17
2018-04-20T09:29:23.407Z,15.63
2018-04-20T09:31:50.943Z,12.47
2018-04-20T09:34:20.217Z,13.03
2018-04-20T09:36:47.679Z,11.70
2018-04-20T09:39:15.983Z,15.30
2018-04-20T09:41:43.527Z,12.07
2018-04-20T09:44:11.791Z,12.67
2018-04-20T09:46:40.083Z,9.33
2018-04-20T09:49:08.344Z,13.73
2018-04-20T09:51:36.620Z,11.93
2018-04-20T09:54:06.876Z,11.60
2018-04-20T09:56:35.343Z,9.03
2018-04-20T09:59:02.859Z,12.10
2018-04-20T10:01:30.369Z,14.17
2018-04-20T10:03:57.894Z,10.93
2018-04-20T10:06:26.177Z,10.20
2018-04-20T10:08:54.474Z,13.53
2018-04-20T10:11:21.976Z,13.70
2018-04-20T10:13:49.516Z,10.77
2018-04-20T10:16:17.015Z,8.93
2018-04-20T10:18:46.271Z,14.50
2018-04-20T10:21:13.769Z,8.13
2018-04-20T10:23:44.016Z,13.33
2018-04-20T10:26:11.722Z,9.20
2018-04-20T10:28:39.232Z,10.50
2018-04-20T10:31:06.762Z,10.50
2018-04-20T10:33:36.007Z,12.23
2018-04-20T10:36:03.528Z,11.00
2018-04-20T10:38:31.792Z,7.80
2018-04-20T10:41:00.082Z,9.00
2018-04-20T10:43:27.599Z,8.67
2018-04-20T10:45:55.138Z,10.63
2018-04-20T10:48:22.672Z,8.67
2018-04-20T10:50:50.196Z,12.37
2018-04-20T10:53:18.481Z,7.97
2018-04-20T10:55:46.748Z,8.80
2018-04-20T10:58:15.029Z,6.50
2018-04-20T11:00:43.303Z,7.33
2018-04-20T11:03:11.597Z,13.20
2018-04-20T11:05:39.099Z,7.30
2018-04-20T11:08:06.636Z,10.70
2018-04-20T11:10:35.088Z,7.60
2018-04-20T11:13:02.612Z,6.70
2018-04-20T11:15:31.062Z,5.67
2018-04-20T11:17:58.590Z,8.33
2018-04-20T11:20:26.095Z,8.73
2018-04-20T11:22:53.591Z,6.57
2018-04-20T11:25:21.113Z,9.97
2018-04-20T11:27:48.613Z,10.47
2018-04-20T11:30:16.139Z,9.00
2018-04-20T11:32:43.633Z,6.57
2018-04-20T11:35:11.156Z,5.87
2018-04-20T11:37:39.436Z,9.67
2018-04-20T11:40:07.732Z,7.23
2018-04-20T11:42:35.223Z,9.33
2018-04-20T11:45:02.748Z,7.03
2018-04-20T11:47:30.267Z,8.37
2018-04-20T11:49:57.769Z,6.60
2018-04-20T11:52:25.291Z,6.30
2018-04-20T11:54:53.563Z,7.27
2018-04-20T11:57:21.086Z,8.13
2018-04-20T11:59:48.580Z,7.97
2018-04-20T12:02:16.929Z,7.27
2018-04-20T12:04:44.381Z,7.43
2018-04-20T12:07:11.920Z,11.17
2018-04-20T12:09:39.427Z,10.70
2018-04-20T12:12:07.744Z,10.00
2018-04-20T12:14:35.269Z,6.20
2018-04-20T12:17:03.549Z,7.03
2018-04-20T12:19:31.851Z,8.30
2018-04-20T12:21:59.355Z,8.23
2018-04-20T12:24:27.647Z,5.80
2018-04-20T12:26:56.889Z,5.73
2018-04-20T12:29:24.452Z,5.70
2018-04-20T12:31:51.967Z,8.67
2018-04-20T12:34:20.276Z,6.10
2018-04-20T12:36:47.784Z,4.73
2018-04-20T12:39:15.349Z,6.53
2018-04-20T12:41:43.671Z,6.47
2018-04-20T12:44:11.203Z,5.27
2018-04-20T12:46:38.709Z,6.40
2018-04-20T12:49:06.215Z,7.17
2018-04-20T12:51:34.532Z,5.97
2018-04-20T12:54:02.040Z,7.10
2018-04-20T12:56:30.325Z,5.60
2018-04-20T12:58:57.820Z,6.73
2018-04-20T13:01:25.344Z,4.80
2018-04-20T13:03:52.856Z,6.50
2018-04-20T13:06:21.887Z,6.40
2018-04-20T13:08:49.439Z,6.97
2018-04-20T13:11:18.867Z,9.10
2018-04-20T13:13:46.376Z,6.00
2018-04-20T13:16:13.876Z,6.37
2018-04-20T13:18:41.419Z,5.40
2018-04-20T13:21:08.942Z,7.40
2018-04-20T13:23:36.482Z,5.80
2018-04-20T13:26:03.979Z,6.97
2018-04-20T13:28:32.269Z,5.93
2018-04-20T13:30:59.767Z,7.10
2018-04-20T13:33:27.294Z,6.40
2018-04-20T13:35:55.784Z,4.57
2018-04-20T13:38:23.313Z,4.63
2018-04-20T13:40:51.595Z,5.93
2018-04-20T13:43:19.102Z,5.50
2018-04-20T13:45:47.593Z,5.80
2018-04-20T13:48:16.603Z,4.70
2018-04-20T13:50:44.916Z,5.00
2018-04-20T13:53:12.423Z,10.73
2018-04-20T13:55:39.974Z,4.60
2018-04-20T13:58:08.231Z,4.20
2018-04-20T14:00:35.751Z,5.67
2018-04-20T14:03:03.260Z,5.23
2018-04-20T14:05:31.575Z,4.67
2018-04-20T14:07:59.853Z,4.40
2018-04-20T14:10:27.361Z,4.30
2018-04-20T14:12:54.893Z,5.50
2018-04-20T14:15:22.434Z,5.63
2018-04-20T14:17:49.951Z,4.90
2018-04-20T14:20:17.467Z,6.80
2018-04-20T14:22:46.979Z,8.00
2018-04-20T14:25:14.495Z,5.47
2018-04-20T14:27:42.775Z,4.97
2018-04-20T14:30:10.294Z,7.13
2018-04-20T14:32:37.853Z,4.43
2018-04-20T14:35:06.904Z,4.40
2018-04-20T14:37:34.416Z,6.57
2018-04-20T14:40:01.972Z,4.80
2018-04-20T14:42:30.248Z,6.13
2018-04-20T14:44:57.785Z,5.30
2018-04-20T14:47:25.295Z,4.20
2018-04-20T14:49:52.832Z,6.77
2018-04-20T14:52:21.105Z,4.13
2018-04-20T14:54:49.397Z,4.83
2018-04-20T14:57:16.907Z,5.17
2018-04-20T14:59:46.387Z,5.40
2018-04-20T15:02:13.895Z,4.10
2018-04-20T15:04:41.402Z,4.70
2018-04-20T15:07:08.945Z,4.23
2018-04-20T15:09:36.441Z,3.83
2018-04-20T15:12:06.745Z,4.53
2018-04-20T15:14:34.255Z,7.80
2018-04-20T15:17:02.545Z,4.80
2018-04-20T15:19:30.057Z,3.90
2018-04-20T15:21:58.400Z,4.10
2018-04-20T15:24:25.918Z,4.47
2018-04-20T15:26:54.273Z,4.07
2018-04-20T15:29:21.784Z,4.20
2018-04-20T15:31:49.291Z,4.60
2018-04-20T15:34:16.820Z,4.37
2018-04-20T15:36:44.319Z,4.10
2018-04-20T15:39:12.611Z,4.93
2018-04-20T15:41:40.871Z,3.73
2018-04-20T15:44:09.173Z,6.70
2018-04-20T15:46:36.678Z,4.67
2018-04-20T15:49:04.199Z,3.80
2018-04-20T15:51:31.703Z,5.53
2018-04-20T15:53:59.228Z,3.80
2018-04-20T15:56:26.736Z,4.87
2018-04-20T15:58:55.005Z,5.40
2018-04-20T16:01:23.315Z,5.40
2018-04-20T16:03:50.851Z,4.53
2018-04-20T16:06:20.057Z,8.17
2018-04-20T16:08:47.559Z,4.00
2018-04-20T16:11:17.057Z,4.40
2018-04-20T16:13:44.590Z,3.90
2018-04-20T16:16:12.113Z,5.00
2018-04-20T16:18:40.387Z,5.07
2018-04-20T16:21:08.679Z,4.00
2018-04-20T16:23:36.202Z,3.83
2018-04-20T16:26:05.217Z,3.97
2018-04-20T16:28:33.512Z,4.00
2018-04-20T16:31:01.024Z,4.60
2018-04-20T16:33:30.506Z,4.87
2018-04-20T16:35:58.306Z,3.80
2018-04-20T16:38:25.844Z,5.30
2018-04-20T16:40:54.413Z,4.10
2018-04-20T16:43:21.935Z,3.80
2018-04-20T16:45:49.444Z,6.90
2018-04-20T16:48:16.947Z,4.63
2018-04-20T16:50:44.467Z,3.67
2018-04-20T16:53:11.974Z,3.80
2018-04-20T16:55:39.499Z,4.77
2018-04-20T16:58:07.780Z,5.20
2018-04-20T17:00:36.063Z,5.47
2018-04-20T17:03:03.561Z,2.97
2018-04-20T17:05:31.096Z,4.73
2018-04-20T17:07:58.594Z,4.00
2018-04-20T17:10:26.123Z,4.27
2018-04-20T17:12:53.638Z,4.93
2018-04-20T17:15:21.904Z,3.63
2018-04-20T17:17:50.193Z,3.60
2018-04-20T17:20:18.459Z,4.40
2018-04-20T17:22:46.748Z,3.67
2018-04-20T17:25:14.255Z,4.73
2018-04-20T17:27:43.727Z,3.27
2018-04-20T17:30:11.247Z,3.43
2018-04-20T17:32:39.532Z,4.40
2018-04-20T17:35:07.800Z,3.80
2018-04-20T17:37:36.096Z,3.30
2018-04-20T17:40:04.589Z,4.40
2018-04-20T17:42:32.113Z,5.10
2018-04-20T17:45:00.417Z,2.97
2018-04-20T17:47:28.881Z,3.63
2018-04-20T17:49:56.428Z,5.37
2018-04-20T17:52:24.757Z,3.30
2018-04-20T17:54:52.241Z,3.77
2018-04-20T17:57:19.757Z,3.63
2018-04-20T17:59:47.288Z,3.73
2018-04-20T18:02:14.793Z,4.70
2018-04-20T18:04:42.297Z,3.47
2018-04-20T18:07:10.580Z,3.33
2018-04-20T18:09:38.091Z,4.13
2018-04-20T18:12:07.592Z,3.40
2018-04-20T18:14:35.083Z,3.83
2018-04-20T18:17:03.373Z,3.80
2018-04-20T18:19:30.882Z,4.20
2018-04-20T18:21:58.428Z,3.93
2018-04-20T18:24:26.883Z,4.13
2018-04-20T18:26:54.403Z,3.30
2018-04-20T18:29:22.685Z,2.70
2018-04-20T18:31:50.972Z,4.27
2018-04-20T18:34:18.519Z,3.70
2018-04-20T18:36:46.786Z,3.40
2018-04-20T18:39:17.049Z,4.40
2018-04-20T18:41:44.546Z,3.37
2018-04-20T18:44:12.072Z,3.80
2018-04-20T18:46:39.580Z,4.13
2018-04-20T18:49:07.899Z,4.17
2018-04-20T18:51:35.419Z,3.70
2018-04-20T18:54:03.704Z,2.87
2018-04-20T18:56:31.971Z,3.40
2018-04-20T18:59:00.251Z,12.30
2018-04-20T19:01:29.477Z,3.90
2018-04-20T19:03:56.999Z,4.43
2018-04-20T19:06:25.256Z,3.70
2018-04-20T19:08:52.760Z,6.00
2018-04-20T19:11:20.288Z,4.30
2018-04-20T19:13:48.570Z,3.37
2018-04-20T19:16:16.852Z,9.53
2018-04-20T19:18:44.367Z,3.90
2018-04-20T19:21:11.904Z,3.77
2018-04-20T19:23:39.412Z,5.17
2018-04-20T19:26:07.716Z,7.50
2018-04-20T19:28:35.211Z,7.60
2018-04-20T19:31:02.740Z,5.47
2018-04-20T19:33:30.236Z,4.33
2018-04-20T19:35:58.672Z,8.03
2018-04-20T19:38:26.195Z,3.73
2018-04-20T19:40:54.463Z,4.63
2018-04-20T19:43:24.702Z,5.70
2018-04-20T19:45:52.228Z,3.60
2018-04-20T19:48:19.748Z,4.70
2018-04-20T19:50:47.864Z,3.73
2018-04-20T19:53:15.672Z,4.17
2018-04-20T19:55:43.310Z,6.70
2018-04-20T19:58:11.301Z,3.60
2018-04-20T20:00:39.160Z,3.80
2018-04-20T20:03:08.770Z,3.57
2018-04-20T20:05:37.556Z,3.40
2018-04-20T20:08:05.321Z,3.47
2018-04-20T20:10:33.285Z,4.70
2018-04-20T20:13:00.944Z,3.53
2018-04-20T20:15:28.689Z,3.30
2018-04-20T20:17:56.573Z,3.80
2018-04-20T20:20:25.472Z,4.00
2018-04-20T20:22:54.353Z,7.33
2018-04-20T20:25:21.973Z,3.80
2018-04-20T20:27:50.597Z,4.40
2018-04-20T20:30:19.279Z,6.23
2018-04-20T20:32:48.172Z,5.70
2018-04-20T20:35:17.161Z,3.43
2018-04-20T20:37:44.934Z,5.80
2018-04-20T20:40:12.664Z,3.37
2018-04-20T20:42:40.555Z,6.43
2018-04-20T20:45:08.418Z,4.37
2018-04-20T20:47:36.198Z,6.27
2018-04-20T20:50:03.943Z,9.20
2018-04-20T20:52:31.567Z,3.80
2018-04-20T20:55:00.515Z,4.50
2018-04-20T20:57:28.214Z,5.27
2018-04-20T20:59:56.840Z,4.00
2018-04-20T21:02:24.430Z,3.80
2018-04-20T21:04:52.001Z,3.77
2018-04-20T21:07:19.557Z,3.53
2018-04-20T21:09:47.085Z,3.60
2018-04-20T21:12:14.610Z,5.00
2018-04-20T21:14:42.878Z,3.40
2018-04-20T21:17:11.151Z,4.83
2018-04-20T21:19:39.444Z,5.10
2018-04-20T21:22:06.948Z,3.60
2018-04-20T21:24:38.010Z,4.50
2018-04-20T21:27:05.475Z,3.90
2018-04-20T21:29:33.766Z,4.67
2018-04-20T21:32:02.491Z,7.73
2018-04-20T21:34:30.233Z,8.60
2018-04-20T21:36:59.020Z,9.40
2018-04-20T21:39:27.087Z,8.23
2018-04-20T21:41:54.952Z,10.30
2018-04-20T21:44:22.739Z,7.47
2018-04-20T21:46:50.272Z,8.80
2018-04-20T21:49:17.933Z,8.93
2018-04-20T21:51:45.902Z,9.30
2018-04-20T21:54:13.432Z,6.70
2018-04-20T21:56:41.729Z,8.80
2018-04-20T21:59:10.183Z,6.20
2018-04-20T22:01:38.447Z,7.00
2018-04-20T22:04:06.750Z,6.87
2018-04-20T22:06:35.214Z,8.13
2018-04-20T22:09:02.789Z,6.93
2018-04-20T22:11:30.309Z,9.80
2018-04-20T22:13:57.817Z,9.70
2018-04-20T22:16:26.300Z,8.60
2018-04-20T22:18:53.819Z,6.70
2018-04-20T22:21:22.092Z,7.37
2018-04-20T22:23:50.371Z,9.60
2018-04-20T22:26:18.630Z,8.60
2018-04-20T22:28:46.153Z,9.47
2018-04-20T22:31:13.667Z,8.17
2018-04-20T22:33:41.966Z,9.47
2018-04-20T22:36:09.469Z,8.77
2018-04-20T22:38:37.764Z,9.03
2018-04-20T22:41:06.038Z,10.70
2018-04-20T22:43:34.363Z,9.07
2018-04-20T22:46:01.861Z,9.43
2018-04-20T22:48:29.368Z,8.87
2018-04-20T22:50:58.871Z,9.10
2018-04-20T22:53:26.363Z,7.80
2018-04-20T22:55:53.884Z,8.50
2018-04-20T22:58:21.392Z,10.30
2018-04-20T23:00:48.935Z,7.53
2018-04-20T23:03:16.445Z,9.30
2018-04-20T23:05:43.975Z,13.10
2018-04-20T23:08:12.252Z,9.17
2018-04-20T23:10:40.559Z,11.40
2018-04-20T23:13:08.067Z,8.70
2018-04-20T23:15:36.468Z,11.60
2018-04-20T23:18:05.393Z,8.20
2018-04-20T23:20:33.192Z,11.70
2018-04-20T23:23:02.552Z,9.23
2018-04-20T23:25:31.443Z,10.17
2018-04-20T23:27:59.213Z,9.57
2018-04-20T23:30:27.099Z,11.00
2018-04-20T23:32:57.408Z,8.70
2018-04-20T23:35:25.149Z,8.87
2018-04-20T23:37:54.092Z,9.30
2018-04-20T23:40:22.680Z,11.43
2018-04-20T23:42:51.210Z,9.93
2018-04-20T23:45:20.100Z,9.70
2018-04-20T23:47:48.625Z,9.70
2018-04-20T23:50:17.365Z,10.60
2018-04-20T23:52:45.173Z,11.70
2018-04-20T23:55:12.995Z,11.10
2018-04-20T23:57:42.089Z,12.10
